Wiesbaden, Wiesbaden Army Airfield (ETOU)

NameWiesbaden Army Airfield
CityWiesbaden
CountryGermany
ICAOETOU
IATAWIE
Altitude141 m
CoordinatesGoogle Map
Live Air TrafficLiveATC.net
METARETOU 151456Z AUTO 20005KT 9999 SCT022 05/02 A2959 RMK AO2 SLP027 T00500015 50012 $
2019-11-15 14:56:00 Wind: South (200°) 2.57 m/s - Visibility: > 10000 m - Temperature: 5 °C - Dew point: 2 °C - Humidity: 81.2% - Pressure: 1002.03 hPa
Statistics

The table below shows the detailed information of all flights to/from Wiesbaden, Wiesbaden Army Airfield (ETOU).